This is the latest recevied weather packets stored in our database for station/object DL2AKT-20. If no packets are shown the sender has not sent any weather packets the latest 10 day(s).
| Time | Temp. | Humidity | Pressure | Rain* | Wind** | Luminosity | Snow |
|---|---|---|---|---|---|---|---|
| 1777668570 | 17.78° C | 36% | 1027.9 hPa | - | - | - | - |
| 1777667669 | 17.78° C | 36% | 1028 hPa | - | - | - | - |
| 1777666769 | 18.33° C | 36% | 1028 hPa | - | - | - | - |
| 1777665869 | 18.33° C | 35% | 1028 hPa | - | - | - | - |
| 1777664969 | 18.33° C | 34% | 1028.1 hPa | - | - | - | - |
| 1777664069 | 18.89° C | 34% | 1028 hPa | - | - | - | - |
| 1777663169 | 18.89° C | 34% | 1028 hPa | - | - | - | - |
| 1777662269 | 19.44° C | 32% | 1028 hPa | - | - | - | - |
| 1777661370 | 20° C | 32% | 1027.9 hPa | - | - | - | - |
| 1777660470 | 20.56° C | 32% | 1027.9 hPa | - | - | - | - |
| 1777659570 | 21.11° C | 31% | 1027.9 hPa | - | - | - | - |
| 1777658670 | 21.11° C | 30% | 1027.7 hPa | - | - | - | - |
| 1777657770 | 21.67° C | 29% | 1027.7 hPa | - | - | - | - |
| 1777656870 | 22.22° C | 28% | 1027.7 hPa | - | - | - | - |
| 1777655970 | 22.22° C | 27% | 1027.8 hPa | - | - | - | - |
| 1777655070 | 22.22° C | 27% | 1027.9 hPa | - | - | - | - |
| 1777654170 | 22.78° C | 26% | 1028 hPa | - | - | - | - |
| 1777653270 | 23.33° C | 26% | 1028.1 hPa | - | - | - | - |
| 1777652370 | 23.89° C | 25% | 1028.1 hPa | - | - | - | - |
| 1777651470 | 23.33° C | 25% | 1028.3 hPa | - | - | - | - |
| 1777650569 | 23.33° C | 24% | 1028.3 hPa | - | - | - | - |
| 1777649669 | 23.33° C | 25% | 1028.5 hPa | - | - | - | - |
| 1777648769 | 23.33° C | 24% | 1028.6 hPa | - | - | - | - |
| 1777647869 | 23.33° C | 25% | 1028.8 hPa | - | - | - | - |
| 1777646969 | 22.78° C | 24% | 1029 hPa | - | - | - | - |
* Rain since midnight (hover to see other rain measurements)
** Current wind speed in m/s (hover to see current wind gust speed)